Crawford, NE

11:23 AM MDT on September 22, 2014 (GMT -0600)
Pine Ridge | Change Station
CLOSE
Current Station
Airport
Location: Pine Ridge,
Elevation: 3330 ft
Nearby Weather Stations

Elev 3330 ft 43.02 °N, 102.52 °W | Updated 31 minutes ago

Partly Cloudy
Partly Cloudy
73 °F
Feels Like 73 °F
N
23
Wind Variable Wind from South
Gusts 33 mph

Today
High -- | Low -- °F
--% Chance of Precip.
Yesterday
High -- | Low -- °F
Precip. -- in
6:41 AM 6:50 PM
Waning Crescent, 2% visible
Pressure 30.02 in
Visibility 10.0 miles
Clouds Clear
Dew Point 48 °F
Humidity 41%
Rainfall 0.00 in
Snow Depth Not available.
UV 6 out of 12
Pollen 5.70 out of 12
Air Quality Not available.
Flu Activity Not available.
METAR KIEN 221652Z AUTO 18020G29KT 10SM CLR 23/09 A3008 RMK AO2 PK WND 19032/1638 SLP164 T02280089

More Conditions Fewer Conditions

Pressure 30.02 in
Visibility 10.0 miles
Clouds Clear
Dew Point 48 °F
Humidity 41%
Rainfall 0.00 in
Snow Depth Not available.
UV 6 out of 12
Pollen 5.70 out of 12
Air Quality Not available.
Flu Activity Not available.
METAR KIEN 221652Z AUTO 18020G29KT 10SM CLR 23/09 A3008 RMK AO2 PK WND 19032/1638 SLP164 T02280089

More Conditions Fewer Conditions

10-Day Weather Forecast

Almanac

Astronomy

Sep. 22, 2014 Rise Set
Actual Time 6:41 AM MDT 6:50 PM MDT
Civil Twilight 6:12 AM MDT 7:18 PM MDT
Nautical Twilight 5:39 AM MDT 7:51 PM MDT
Astronomical Twilight 5:06 AM MDT 8:25 PM MDT
Moon 5:10 AM MDT 6:00 PM MDT
Length of Visible Light 13h 06m
Length of Day
12h 09m
Tomorrow will be 2m 52s shorter.
Waning Crescent, 2% of the Moon is Illuminated
Today
Waning Crescent
Sep 24
New
Oct 1
First Quarter
Oct 8
Full
Oct 15
Last Quarter

Today's Extremes

State Highs State Lows

Community

WunderPhotos

Upload Photos

1,755,492 photos uploaded!

WunderBlogs® & News

Nearby

Snow Depth

Station Depth Elevation
No new snow has been reported.

Earthquake Activity

City Distance Mag. Time & Date
No recent earthquake activity has been reported nearby.
Minimum magnitude displayed is 2.5.

Coastal Water Temperatures

Place Temperature
No Stations Reporting

Nearby Weather Stations